Weather observations for the past three days for
Eufaula Municipal Airport
| Date | Time (cdt) | Wind (mph) | Vis. (mi.) | Weather | Sky Cond. | Temperature (ºF) | Relative Humidity | Wind Chill (°F) | Heat Index (°F) | Pressure | Precipitation (in) | ||||||
|---|---|---|---|---|---|---|---|---|---|---|---|---|---|---|---|---|---|
| Air | Dwpt | 6 hour | altimeter (in) | sea level (mb) | 1 hr | 3 hr | 6 hr | ||||||||||
| Max. | Min. | ||||||||||||||||
| 01 | 10:58 | E 9 | 10.00 | A Few Clouds | FEW033 | 90 | 72 | 56% | 97 | 30.11 | 1019.1 | ||||||
| 01 | 09:58 | Calm | 10.00 | Fair | CLR | 87.1 | 73.9 | 65% | 95 | 30.12 | 1019.4 | ||||||
| 01 | 08:58 | N 3 | 10.00 | Fair | CLR | 82.9 | 73.9 | 74% | 89 | 30.12 | 1019.5 | ||||||
| 01 | 07:58 | Calm | 10.00 | Fair | CLR | 78.1 | 73.9 | 87% | 81 | 30.12 | 1019.4 | ||||||
| 01 | 06:58 | Calm | 10.00 | Fair | CLR | 73.9 | 73 | 77 | 71.1 | 97% | 30.11 | 1019.0 | |||||
| 01 | 05:58 | Calm | 10.00 | Fair | CLR | 71.1 | 71.1 | 100% | 30.09 | 1018.4 | |||||||
| 01 | 04:58 | Calm | 10.00 | Fair | CLR | 72 | 72 | 100% | 30.07 | 1017.7 | |||||||
| 01 | 03:58 | Calm | 10.00 | Fair | CLR | 73 | 72 | 96% | 30.06 | 1017.5 | |||||||
| 01 | 02:58 | Calm | 10.00 | Fair | CLR | 73 | 73 | 100% | 30.06 | 1017.5 | |||||||
| 01 | 01:58 | SE 3 | 10.00 | Fair | CLR | 77 | 72 | 85% | 78 | 30.06 | 1017.5 | ||||||
| 31 | 23:58 | Calm | 10.00 | Fair | CLR | 73.9 | 73 | 97% | 30.08 | 1018.0 | |||||||
| 31 | 22:58 | Calm | 9.00 | Fair | CLR | 75 | 73.9 | 96% | 73 | 30.08 | 1018.2 | ||||||
| 31 | 21:58 | Calm | 10.00 | Fair | CLR | 75.9 | 73.9 | 94% | 75 | 30.08 | 1018.3 | ||||||
| 31 | 20:58 | Calm | 10.00 | Fair | CLR | 77 | 75 | 94% | 78 | 30.07 | 1017.7 | ||||||
| 31 | 19:58 | Calm | 10.00 | Fair | CLR | 79 | 75 | 88% | 83 | 30.05 | 1017.0 | ||||||
| 31 | 17:58 | E 6 | 10.00 | A Few Clouds | FEW095 | 91 | 70 | 50% | 97 | 30.04 | 1016.7 | ||||||
| 31 | 16:58 | E 10 | 10.00 | Partly Cloudy | SCT055 | 93.9 | 70 | 46% | 100 | 30.03 | 1016.5 | ||||||
| 31 | 15:58 | E 8 | 10.00 | A Few Clouds | FEW100 | 93.9 | 69.1 | 44% | 99 | 30.04 | 1016.9 | ||||||
| 31 | 14:58 | N 6 | 10.00 | A Few Clouds | FEW050 | 93 | 68 | 44% | 97 | 30.06 | 1017.3 | ||||||
| 31 | 13:58 | E 9 | 10.00 | A Few Clouds | FEW050 | 93 | 70 | 47% | 99 | 30.07 | 1017.8 | ||||||
| 31 | 11:58 | E 8 | 10.00 | Fair | CLR | 90 | 70 | 52% | 95 | 30.12 | 1019.5 | ||||||
| 31 | 10:58 | SE 6 | 10.00 | Fair | CLR | 87.1 | 71.1 | 59% | 93 | 30.13 | 1019.9 | ||||||
| 31 | 09:58 | NE 6 | 10.00 | Fair | CLR | 84.9 | 72 | 65% | 91 | 30.14 | 1020.2 | ||||||
| 31 | 08:58 | E 6 | 10.00 | Fair | CLR | 81 | 72 | 74% | 85 | 30.14 | 1020.1 | ||||||
| 31 | 07:58 | E 5 | 10.00 | Fair | CLR | 77 | 72 | 85% | 78 | 30.13 | 1019.9 | ||||||
| 31 | 06:58 | Calm | 10.00 | Fair | CLR | 73 | 72 | 75.9 | 71.1 | 96% | 30.12 | 1019.6 | |||||
| 31 | 05:58 | Calm | 10.00 | Fair | CLR | 72 | 71.1 | 97% | 30.1 | 1019.0 | |||||||
| 31 | 04:58 | NE 5 | 10.00 | Fair | CLR | 73 | 72 | 96% | 30.09 | 1018.6 | |||||||
| 31 | 03:58 | Calm | 10.00 | Fair | CLR | 73 | 72 | 96% | 30.08 | 1018.3 | |||||||
| 31 | 02:58 | E 5 | 10.00 | Fair | CLR | 75 | 72 | 90% | 74 | 30.07 | 1017.9 | ||||||
| 31 | 01:58 | SE 3 | 10.00 | Fair | CLR | 75.9 | 72 | 88% | 76 | 30.08 | 1018.2 | ||||||
| 31 | 00:58 | Calm | 10.00 | Fair | CLR | 73.9 | 73 | 84 | 73 | 97% | 30.08 | 1018.2 | |||||
| 30 | 23:58 | Calm | 10.00 | Fair | CLR | 73.9 | 73 | 97% | 30.08 | 1018.1 | |||||||
| 30 | 22:58 | Calm | 10.00 | Fair | CLR | 73.9 | 73 | 97% | 30.09 | 1018.4 | |||||||
| 30 | 21:58 | Calm | 10.00 | Fair | CLR | 75.9 | 73 | 91% | 76 | 30.09 | 1018.4 | ||||||
| 30 | 20:58 | Calm | 10.00 | Fair | CLR | 80.1 | 73 | 79% | 84 | 30.09 | 1018.5 | ||||||
| 30 | 19:58 | SE 7 | 10.00 | Fair | CLR | 82.9 | 72 | 70% | 88 | 30.08 | 1018.2 | ||||||
| 30 | 18:58 | E 3 | 10.00 | Fair | CLR | 82.9 | 75 | 93.9 | 82.9 | 77% | 90 | 30.07 | 1017.7 | ||||
| 30 | 17:58 | E 5 | 10.00 | Fair | CLR | 86 | 71.1 | 61% | 92 | 30.05 | 1017.1 | ||||||
| 30 | 16:58 | E 7 | 10.00 | A Few Clouds | FEW049 | 87.1 | 71.1 | 59% | 93 | 30.06 | 1017.4 | ||||||
| 30 | 15:58 | NE 7 | 10.00 | Mostly Cloudy | FEW060 SCT095 BKN120 | 91 | 69.1 | 49% | 96 | 30.05 | 1017.0 | ||||||
| 30 | 14:58 | E 8 | 10.00 | Fair | CLR | 91.9 | 70 | 49% | 98 | 30.06 | 1017.4 | ||||||
| 30 | 13:58 | NE 8 | 10.00 | Fair | CLR | 91.9 | 70 | 49% | 98 | 30.09 | 1018.3 | ||||||
| 30 | 12:58 | E 9 | 10.00 | A Few Clouds | FEW055 FEW070 | 90 | 72 | 91 | 75 | 56% | 97 | 30.11 | 1019.2 | ||||
| 30 | 11:58 | SE 7 | 10.00 | Fair | CLR | 89.1 | 71.1 | 55% | 95 | 30.14 | 1020.0 | ||||||
| 30 | 10:58 | Vrbl 7 | 10.00 | A Few Clouds | FEW025 | 87.1 | 72 | 61% | 94 | 30.15 | 1020.3 | ||||||
| 30 | 09:58 | Vrbl 6 | 10.00 | Fair | CLR | 84 | 73 | 70% | 90 | 30.15 | 1020.5 | ||||||
| 30 | 08:58 | Vrbl 7 | 10.00 | Fair | CLR | 80.1 | 73.9 | 82% | 85 | 30.15 | 1020.5 | ||||||
| 30 | 07:58 | NE 5 | 10.00 | A Few Clouds | FEW007 | 75.9 | 73.9 | 94% | 75 | 30.15 | 1020.5 | ||||||
| 30 | 06:58 | Calm | 10.00 | Fair | CLR | 75 | 73 | 75 | 72 | 94% | 73 | 30.13 | 1020.0 | ||||
| 30 | 05:58 | Calm | 10.00 | Fair | CLR | 73 | 73 | 100% | 30.11 | 1019.1 | |||||||
| 30 | 04:58 | Calm | 10.00 | Mostly Cloudy | BKN030 | 73.9 | 73 | 97% | 30.1 | 1018.9 | |||||||
| 30 | 03:58 | NE 3 | 10.00 | Mostly Cloudy | BKN026 | 75 | 73 | 94% | 73 | 30.09 | 1018.5 | ||||||
| 30 | 02:58 | N 3 | 10.00 | Fair | CLR | 73 | 73 | 100% | 30.09 | 1018.7 | |||||||
| 30 | 01:58 | Calm | 9.00 | Fair | CLR | 73 | 73 | 100% | 30.09 | 1018.6 | |||||||
| 30 | 00:58 | Calm | 10.00 | Fair | CLR | 73 | 73 | 84 | 73 | 100% | 30.1 | 1018.8 | |||||
| 29 | 23:58 | E 3 | 10.00 | Fair | CLR | 75.9 | 73.9 | 94% | 75 | 30.12 | 1019.6 | ||||||
| 29 | 22:58 | SE 3 | 10.00 | Fair | CLR | 78.1 | 73.9 | 87% | 81 | 30.12 | 1019.6 | ||||||
| 29 | 21:58 | SE 7 | 10.00 | Fair | CLR | 80.1 | 73.9 | 82% | 85 | 30.13 | 1019.8 | ||||||
| 29 | 20:58 | SE 6 | 10.00 | Fair | CLR | 80.1 | 73.9 | 82% | 85 | 30.11 | 1019.3 | ||||||
| 29 | 19:58 | E 3 | 10.00 | Fair | CLR | 81 | 73 | 77% | 86 | 30.08 | 1018.0 | ||||||
| 29 | 18:58 | SE 6 | 10.00 | A Few Clouds | FEW035 | 84 | 72 | 90 | 84 | 67% | 90 | 30.05 | 1017.3 | ||||
| 29 | 17:58 | SE 8 | 10.00 | Partly Cloudy | SCT039 | 88 | 72 | 59% | 95 | 30.05 | 1017.3 | ||||||
| 29 | 16:58 | E 7 | 10.00 | Fair | CLR | 88 | 72 | 59% | 95 | 30.06 | 1017.4 | ||||||
| 29 | 15:58 | SE 8 | 10.00 | Fair | CLR | 89.1 | 71.1 | 55% | 95 | 30.06 | 1017.4 | ||||||
| 29 | 14:58 | SE 7 | 10.00 | Fair | CLR | 89.1 | 71.1 | 55% | 95 | 30.08 | 1018.1 | ||||||
| 29 | 13:58 | SE 9 | 10.00 | Mostly Cloudy | FEW039 SCT050 BKN060 | 88 | 71.1 | 57% | 94 | 30.1 | 1018.9 | ||||||
| 29 | 12:58 | E 8 | 10.00 | Partly Cloudy | FEW043 SCT055 | 87.1 | 71.1 | 89.1 | 73 | 59% | 93 | 30.11 | 1019.1 | ||||
| Date | Time (cdt) | Wind (mph) | Vis. (mi.) | Weather | Sky Cond. | Air | Dwpt | Max. | Min. | Relative Humidity | Wind Chill (°F) | Heat Index (°F) | altimeter (in) | sea level (mb) | 1 hr | 3 hr | 6 hr |
| 6 hour | |||||||||||||||||
| Temperature (ºF) | Pressure | Precipitation (in) | |||||||||||||||